sensor_id;sensor_type;location;lat;lon;timestamp;P1;durP1;ratioP1;P2;durP2;ratioP2
70946;SDS011;58605;48.700;8.760;2022-08-01T00:01:45;4.30;;;3.90;;
70946;SDS011;58605;48.700;8.760;2022-08-01T00:04:11;4.55;;;3.95;;
70946;SDS011;58605;48.700;8.760;2022-08-01T00:06:37;4.28;;;3.85;;
70946;SDS011;58605;48.700;8.760;2022-08-01T00:09:03;3.90;;;3.50;;
70946;SDS011;58605;48.700;8.760;2022-08-01T00:11:31;4.68;;;4.10;;
70946;SDS011;58605;48.700;8.760;2022-08-01T00:13:57;4.80;;;4.40;;
70946;SDS011;58605;48.700;8.760;2022-08-01T00:16:23;4.63;;;4.22;;
70946;SDS011;58605;48.700;8.760;2022-08-01T00:18:49;4.93;;;4.45;;
70946;SDS011;58605;48.700;8.760;2022-08-01T00:21:15;5.13;;;4.18;;
70946;SDS011;58605;48.700;8.760;2022-08-01T00:23:42;4.63;;;4.22;;
70946;SDS011;58605;48.700;8.760;2022-08-01T00:26:10;4.25;;;3.85;;
70946;SDS011;58605;48.700;8.760;2022-08-01T00:28:38;4.25;;;3.60;;
70946;SDS011;58605;48.700;8.760;2022-08-01T00:31:04;4.40;;;4.00;;
70946;SDS011;58605;48.700;8.760;2022-08-01T00:33:30;5.38;;;4.47;;
70946;SDS011;58605;48.700;8.760;2022-08-01T00:35:56;5.33;;;4.07;;
70946;SDS011;58605;48.700;8.760;2022-08-01T00:38:22;4.13;;;3.83;;
70946;SDS011;58605;48.700;8.760;2022-08-01T00:40:48;4.50;;;4.10;;
70946;SDS011;58605;48.700;8.760;2022-08-01T00:43:14;4.60;;;4.20;;
70946;SDS011;58605;48.700;8.760;2022-08-01T00:45:42;4.83;;;4.43;;
70946;SDS011;58605;48.700;8.760;2022-08-01T00:48:08;4.70;;;4.15;;
70946;SDS011;58605;48.700;8.760;2022-08-01T00:50:34;4.72;;;4.32;;
70946;SDS011;58605;48.700;8.760;2022-08-01T00:53:01;5.88;;;4.45;;
70946;SDS011;58605;48.700;8.760;2022-08-01T00:55:27;4.93;;;3.87;;
70946;SDS011;58605;48.700;8.760;2022-08-01T00:57:54;4.65;;;4.25;;
70946;SDS011;58605;48.700;8.760;2022-08-01T01:00:20;4.93;;;4.53;;
70946;SDS011;58605;48.700;8.760;2022-08-01T01:02:53;5.20;;;4.80;;
70946;SDS011;58605;48.700;8.760;2022-08-01T01:05:22;5.18;;;4.43;;
70946;SDS011;58605;48.700;8.760;2022-08-01T01:07:54;4.68;;;4.10;;
70946;SDS011;58605;48.700;8.760;2022-08-01T01:10:28;5.47;;;3.88;;
70946;SDS011;58605;48.700;8.760;2022-08-01T01:13:02;4.60;;;4.20;;
70946;SDS011;58605;48.700;8.760;2022-08-01T01:15:33;4.72;;;4.20;;
70946;SDS011;58605;48.700;8.760;2022-08-01T01:18:09;4.35;;;3.95;;
70946;SDS011;58605;48.700;8.760;2022-08-01T01:20:39;4.50;;;4.10;;
70946;SDS011;58605;48.700;8.760;2022-08-01T01:26:03;4.63;;;4.22;;
70946;SDS011;58605;48.700;8.760;2022-08-01T01:28:40;4.63;;;4.22;;
70946;SDS011;58605;48.700;8.760;2022-08-01T01:31:31;4.40;;;4.00;;
70946;SDS011;58605;48.700;8.760;2022-08-01T01:34:01;5.70;;;4.03;;
70946;SDS011;58605;48.700;8.760;2022-08-01T01:36:29;4.70;;;4.30;;
70946;SDS011;58605;48.700;8.760;2022-08-01T01:38:57;5.35;;;4.68;;
70946;SDS011;58605;48.700;8.760;2022-08-01T01:41:25;5.07;;;4.43;;
70946;SDS011;58605;48.700;8.760;2022-08-01T01:43:53;5.68;;;4.72;;
70946;SDS011;58605;48.700;8.760;2022-08-01T01:46:22;4.50;;;4.10;;
70946;SDS011;58605;48.700;8.760;2022-08-01T01:48:52;4.72;;;4.32;;
70946;SDS011;58605;48.700;8.760;2022-08-01T01:51:20;5.13;;;4.72;;
70946;SDS011;58605;48.700;8.760;2022-08-01T01:53:47;4.88;;;4.47;;
70946;SDS011;58605;48.700;8.760;2022-08-01T01:56:14;4.60;;;4.30;;
70946;SDS011;58605;48.700;8.760;2022-08-01T01:58:43;5.30;;;4.10;;
70946;SDS011;58605;48.700;8.760;2022-08-01T02:01:10;5.00;;;4.50;;
70946;SDS011;58605;48.700;8.760;2022-08-01T02:03:39;6.43;;;4.18;;
70946;SDS011;58605;48.700;8.760;2022-08-01T02:06:06;5.03;;;4.63;;
70946;SDS011;58605;48.700;8.760;2022-08-01T02:08:33;5.00;;;4.60;;
70946;SDS011;58605;48.700;8.760;2022-08-01T02:11:00;4.10;;;3.80;;
70946;SDS011;58605;48.700;8.760;2022-08-01T02:13:43;5.30;;;4.30;;
70946;SDS011;58605;48.700;8.760;2022-08-01T02:16:12;5.13;;;4.67;;
70946;SDS011;58605;48.700;8.760;2022-08-01T02:18:40;4.40;;;4.00;;
70946;SDS011;58605;48.700;8.760;2022-08-01T02:21:08;4.90;;;4.50;;
70946;SDS011;58605;48.700;8.760;2022-08-01T02:23:37;5.70;;;4.80;;
70946;SDS011;58605;48.700;8.760;2022-08-01T02:26:05;4.90;;;4.50;;
70946;SDS011;58605;48.700;8.760;2022-08-01T02:28:36;5.20;;;4.70;;
70946;SDS011;58605;48.700;8.760;2022-08-01T02:31:08;5.03;;;4.60;;
70946;SDS011;58605;48.700;8.760;2022-08-01T02:33:41;4.97;;;4.57;;
70946;SDS011;58605;48.700;8.760;2022-08-01T02:36:10;5.10;;;4.70;;
70946;SDS011;58605;48.700;8.760;2022-08-01T02:38:40;5.00;;;4.60;;
70946;SDS011;58605;48.700;8.760;2022-08-01T02:41:09;5.07;;;4.67;;
70946;SDS011;58605;48.700;8.760;2022-08-01T02:43:38;5.30;;;4.83;;
70946;SDS011;58605;48.700;8.760;2022-08-01T02:46:09;5.40;;;4.90;;
70946;SDS011;58605;48.700;8.760;2022-08-01T02:48:42;5.43;;;4.93;;
70946;SDS011;58605;48.700;8.760;2022-08-01T02:51:10;5.30;;;4.90;;
70946;SDS011;58605;48.700;8.760;2022-08-01T02:53:37;5.90;;;5.00;;
70946;SDS011;58605;48.700;8.760;2022-08-01T02:56:06;5.07;;;4.67;;
70946;SDS011;58605;48.700;8.760;2022-08-01T02:58:33;5.20;;;4.47;;
70946;SDS011;58605;48.700;8.760;2022-08-01T03:01:02;4.90;;;4.50;;
70946;SDS011;58605;48.700;8.760;2022-08-01T03:03:30;6.00;;;5.03;;
70946;SDS011;58605;48.700;8.760;2022-08-01T03:05:58;5.33;;;4.83;;
70946;SDS011;58605;48.700;8.760;2022-08-01T03:08:25;4.63;;;4.30;;
70946;SDS011;58605;48.700;8.760;2022-08-01T03:11:00;5.00;;;4.60;;
70946;SDS011;58605;48.700;8.760;2022-08-01T03:13:28;5.17;;;4.77;;
70946;SDS011;58605;48.700;8.760;2022-08-01T03:15:56;5.97;;;5.47;;
70946;SDS011;58605;48.700;8.760;2022-08-01T03:18:23;5.73;;;5.23;;
70946;SDS011;58605;48.700;8.760;2022-08-01T03:20:52;5.30;;;4.90;;
70946;SDS011;58605;48.700;8.760;2022-08-01T03:23:20;5.77;;;5.27;;
70946;SDS011;58605;48.700;8.760;2022-08-01T03:25:47;6.13;;;5.63;;
70946;SDS011;58605;48.700;8.760;2022-08-01T03:28:15;5.50;;;5.00;;
70946;SDS011;58605;48.700;8.760;2022-08-01T03:30:42;6.20;;;5.60;;
70946;SDS011;58605;48.700;8.760;2022-08-01T03:33:09;5.53;;;5.03;;
70946;SDS011;58605;48.700;8.760;2022-08-01T03:35:36;6.80;;;5.67;;
70946;SDS011;58605;48.700;8.760;2022-08-01T03:38:15;6.40;;;5.70;;
70946;SDS011;58605;48.700;8.760;2022-08-01T03:40:47;5.93;;;5.40;;
70946;SDS011;58605;48.700;8.760;2022-08-01T03:43:18;6.70;;;5.60;;
70946;SDS011;58605;48.700;8.760;2022-08-01T03:45:49;5.93;;;5.43;;
70946;SDS011;58605;48.700;8.760;2022-08-01T03:48:17;7.67;;;5.77;;
70946;SDS011;58605;48.700;8.760;2022-08-01T03:50:45;7.37;;;6.03;;
70946;SDS011;58605;48.700;8.760;2022-08-01T03:53:13;6.17;;;5.57;;
70946;SDS011;58605;48.700;8.760;2022-08-01T03:55:41;6.03;;;5.50;;
70946;SDS011;58605;48.700;8.760;2022-08-01T03:58:10;5.97;;;5.47;;
70946;SDS011;58605;48.700;8.760;2022-08-01T04:00:37;5.70;;;5.27;;
70946;SDS011;58605;48.700;8.760;2022-08-01T04:03:11;6.10;;;5.03;;
70946;SDS011;58605;48.700;8.760;2022-08-01T04:05:40;5.53;;;5.07;;
70946;SDS011;58605;48.700;8.760;2022-08-01T04:08:06;5.20;;;4.80;;
70946;SDS011;58605;48.700;8.760;2022-08-01T04:10:32;6.10;;;5.00;;
70946;SDS011;58605;48.700;8.760;2022-08-01T04:12:58;5.60;;;5.10;;
70946;SDS011;58605;48.700;8.760;2022-08-01T04:15:26;5.47;;;5.07;;
70946;SDS011;58605;48.700;8.760;2022-08-01T04:17:52;6.13;;;5.23;;
70946;SDS011;58605;48.700;8.760;2022-08-01T04:20:19;5.87;;;4.60;;
70946;SDS011;58605;48.700;8.760;2022-08-01T04:22:45;5.80;;;5.30;;
70946;SDS011;58605;48.700;8.760;2022-08-01T04:25:12;6.33;;;5.83;;
70946;SDS011;58605;48.700;8.760;2022-08-01T04:27:43;6.20;;;5.70;;
70946;SDS011;58605;48.700;8.760;2022-08-01T04:30:13;6.43;;;5.83;;
70946;SDS011;58605;48.700;8.760;2022-08-01T04:32:42;5.90;;;5.43;;
70946;SDS011;58605;48.700;8.760;2022-08-01T04:35:12;6.93;;;6.33;;
70946;SDS011;58605;48.700;8.760;2022-08-01T04:37:41;8.00;;;6.17;;
70946;SDS011;58605;48.700;8.760;2022-08-01T04:40:10;7.30;;;5.63;;
70946;SDS011;58605;48.700;8.760;2022-08-01T04:42:37;7.93;;;6.00;;
70946;SDS011;58605;48.700;8.760;2022-08-01T04:45:04;5.90;;;5.50;;
70946;SDS011;58605;48.700;8.760;2022-08-01T04:47:33;6.37;;;5.87;;
70946;SDS011;58605;48.700;8.760;2022-08-01T04:50:02;7.13;;;6.23;;
70946;SDS011;58605;48.700;8.760;2022-08-01T04:52:32;6.03;;;5.43;;
70946;SDS011;58605;48.700;8.760;2022-08-01T04:54:59;6.90;;;6.23;;
70946;SDS011;58605;48.700;8.760;2022-08-01T04:57:26;6.23;;;5.73;;
70946;SDS011;58605;48.700;8.760;2022-08-01T04:59:52;5.87;;;5.40;;
70946;SDS011;58605;48.700;8.760;2022-08-01T05:02:22;6.33;;;5.83;;
70946;SDS011;58605;48.700;8.760;2022-08-01T05:04:48;6.70;;;6.10;;
70946;SDS011;58605;48.700;8.760;2022-08-01T05:07:16;6.27;;;5.77;;
70946;SDS011;58605;48.700;8.760;2022-08-01T05:09:42;6.67;;;6.10;;
70946;SDS011;58605;48.700;8.760;2022-08-01T05:12:08;6.73;;;6.13;;
70946;SDS011;58605;48.700;8.760;2022-08-01T05:14:35;7.50;;;6.13;;
70946;SDS011;58605;48.700;8.760;2022-08-01T05:17:03;6.07;;;5.27;;
70946;SDS011;58605;48.700;8.760;2022-08-01T05:19:30;6.73;;;6.00;;
70946;SDS011;58605;48.700;8.760;2022-08-01T05:21:59;9.17;;;6.60;;
70946;SDS011;58605;48.700;8.760;2022-08-01T05:24:28;7.03;;;6.23;;
70946;SDS011;58605;48.700;8.760;2022-08-01T05:26:54;11.07;;;6.23;;
70946;SDS011;58605;48.700;8.760;2022-08-01T05:29:20;7.03;;;6.30;;
70946;SDS011;58605;48.700;8.760;2022-08-01T05:31:46;6.27;;;5.67;;
70946;SDS011;58605;48.700;8.760;2022-08-01T05:34:12;6.27;;;5.77;;
70946;SDS011;58605;48.700;8.760;2022-08-01T05:36:38;5.93;;;5.43;;
70946;SDS011;58605;48.700;8.760;2022-08-01T05:39:04;6.77;;;5.90;;
70946;SDS011;58605;48.700;8.760;2022-08-01T05:41:32;8.20;;;5.50;;
70946;SDS011;58605;48.700;8.760;2022-08-01T05:43:58;6.53;;;5.67;;
70946;SDS011;58605;48.700;8.760;2022-08-01T05:46:24;6.77;;;6.13;;
70946;SDS011;58605;48.700;8.760;2022-08-01T05:48:50;6.80;;;6.10;;
70946;SDS011;58605;48.700;8.760;2022-08-01T05:51:16;6.00;;;5.45;;
70946;SDS011;58605;48.700;8.760;2022-08-01T05:53:42;6.23;;;5.63;;
70946;SDS011;58605;48.700;8.760;2022-08-01T05:56:08;5.93;;;5.43;;
70946;SDS011;58605;48.700;8.760;2022-08-01T05:58:36;7.57;;;5.70;;
70946;SDS011;58605;48.700;8.760;2022-08-01T06:01:02;6.03;;;5.45;;
70946;SDS011;58605;48.700;8.760;2022-08-01T06:03:28;5.85;;;5.22;;
70946;SDS011;58605;48.700;8.760;2022-08-01T06:05:56;5.78;;;5.18;;
70946;SDS011;58605;48.700;8.760;2022-08-01T06:08:22;5.53;;;4.70;;
70946;SDS011;58605;48.700;8.760;2022-08-01T06:10:48;5.60;;;5.10;;
70946;SDS011;58605;48.700;8.760;2022-08-01T06:13:14;5.60;;;5.10;;
70946;SDS011;58605;48.700;8.760;2022-08-01T06:15:42;6.10;;;5.13;;
70946;SDS011;58605;48.700;8.760;2022-08-01T06:18:08;5.80;;;5.38;;
70946;SDS011;58605;48.700;8.760;2022-08-01T06:20:34;4.93;;;4.53;;
70946;SDS011;58605;48.700;8.760;2022-08-01T06:23:00;5.75;;;5.00;;
70946;SDS011;58605;48.700;8.760;2022-08-01T06:25:26;4.93;;;4.53;;
70946;SDS011;58605;48.700;8.760;2022-08-01T06:27:52;7.03;;;4.65;;
70946;SDS011;58605;48.700;8.760;2022-08-01T06:30:24;4.30;;;4.00;;
70946;SDS011;58605;48.700;8.760;2022-08-01T06:32:53;4.70;;;4.22;;
70946;SDS011;58605;48.700;8.760;2022-08-01T06:35:21;4.60;;;4.20;;
70946;SDS011;58605;48.700;8.760;2022-08-01T06:37:47;3.65;;;3.35;;
70946;SDS011;58605;48.700;8.760;2022-08-01T06:40:14;4.00;;;3.60;;
70946;SDS011;58605;48.700;8.760;2022-08-01T06:42:40;6.38;;;4.38;;
70946;SDS011;58605;48.700;8.760;2022-08-01T06:45:07;4.38;;;3.50;;
70946;SDS011;58605;48.700;8.760;2022-08-01T06:47:34;3.90;;;3.38;;
70946;SDS011;58605;48.700;8.760;2022-08-01T06:50:02;4.03;;;3.20;;
70946;SDS011;58605;48.700;8.760;2022-08-01T06:52:29;4.40;;;3.20;;
70946;SDS011;58605;48.700;8.760;2022-08-01T06:54:55;3.33;;;3.03;;
70946;SDS011;58605;48.700;8.760;2022-08-01T06:57:21;3.67;;;3.38;;
70946;SDS011;58605;48.700;8.760;2022-08-01T06:59:47;3.38;;;3.08;;
70946;SDS011;58605;48.700;8.760;2022-08-01T07:02:13;3.85;;;3.55;;
70946;SDS011;58605;48.700;8.760;2022-08-01T07:04:39;3.42;;;3.20;;
70946;SDS011;58605;48.700;8.760;2022-08-01T07:07:07;3.03;;;2.80;;
70946;SDS011;58605;48.700;8.760;2022-08-01T07:09:33;3.22;;;3.00;;
70946;SDS011;58605;48.700;8.760;2022-08-01T07:11:59;3.55;;;2.88;;
70946;SDS011;58605;48.700;8.760;2022-08-01T07:14:25;3.38;;;2.80;;
70946;SDS011;58605;48.700;8.760;2022-08-01T07:16:51;3.38;;;3.08;;
70946;SDS011;58605;48.700;8.760;2022-08-01T07:19:17;3.42;;;3.13;;
70946;SDS011;58605;48.700;8.760;2022-08-01T07:21:43;3.30;;;3.00;;
70946;SDS011;58605;48.700;8.760;2022-08-01T07:24:12;4.07;;;2.75;;
70946;SDS011;58605;48.700;8.760;2022-08-01T07:26:38;4.25;;;3.13;;
70946;SDS011;58605;48.700;8.760;2022-08-01T07:29:11;3.30;;;3.00;;
70946;SDS011;58605;48.700;8.760;2022-08-01T07:31:38;3.30;;;3.00;;
70946;SDS011;58605;48.700;8.760;2022-08-01T07:34:05;3.38;;;3.00;;
70946;SDS011;58605;48.700;8.760;2022-08-01T07:36:31;3.20;;;3.00;;
70946;SDS011;58605;48.700;8.760;2022-08-01T07:38:57;3.25;;;3.00;;
70946;SDS011;58605;48.700;8.760;2022-08-01T07:41:24;3.30;;;3.00;;
70946;SDS011;58605;48.700;8.760;2022-08-01T07:43:50;3.55;;;3.25;;
70946;SDS011;58605;48.700;8.760;2022-08-01T07:46:16;2.97;;;2.78;;
70946;SDS011;58605;48.700;8.760;2022-08-01T07:48:42;2.88;;;2.67;;
70946;SDS011;58605;48.700;8.760;2022-08-01T07:51:08;3.47;;;3.22;;
70946;SDS011;58605;48.700;8.760;2022-08-01T07:53:35;3.90;;;3.60;;
70946;SDS011;58605;48.700;8.760;2022-08-01T07:56:01;4.50;;;3.88;;
70946;SDS011;58605;48.700;8.760;2022-08-01T07:58:31;3.33;;;3.03;;
70946;SDS011;58605;48.700;8.760;2022-08-01T08:00:57;3.67;;;3.38;;
70946;SDS011;58605;48.700;8.760;2022-08-01T08:03:25;3.72;;;3.42;;
70946;SDS011;58605;48.700;8.760;2022-08-01T08:05:51;3.58;;;3.28;;
70946;SDS011;58605;48.700;8.760;2022-08-01T08:08:18;3.63;;;3.33;;
70946;SDS011;58605;48.700;8.760;2022-08-01T08:10:44;3.60;;;3.30;;
70946;SDS011;58605;48.700;8.760;2022-08-01T08:13:10;3.65;;;3.35;;
70946;SDS011;58605;48.700;8.760;2022-08-01T08:15:38;3.58;;;3.28;;
70946;SDS011;58605;48.700;8.760;2022-08-01T08:18:04;3.78;;;3.47;;
70946;SDS011;58605;48.700;8.760;2022-08-01T08:20:30;3.85;;;3.28;;
70946;SDS011;58605;48.700;8.760;2022-08-01T08:22:56;3.35;;;2.97;;
70946;SDS011;58605;48.700;8.760;2022-08-01T08:25:25;3.80;;;3.50;;
70946;SDS011;58605;48.700;8.760;2022-08-01T08:27:53;5.28;;;3.47;;
70946;SDS011;58605;48.700;8.760;2022-08-01T08:30:19;2.85;;;2.65;;
70946;SDS011;58605;48.700;8.760;2022-08-01T08:32:47;3.58;;;3.15;;
70946;SDS011;58605;48.700;8.760;2022-08-01T08:35:13;4.25;;;3.40;;
70946;SDS011;58605;48.700;8.760;2022-08-01T08:37:39;4.10;;;3.25;;
70946;SDS011;58605;48.700;8.760;2022-08-01T08:40:06;4.03;;;3.70;;
70946;SDS011;58605;48.700;8.760;2022-08-01T08:42:33;4.45;;;3.80;;
70946;SDS011;58605;48.700;8.760;2022-08-01T08:45:00;4.03;;;3.58;;
70946;SDS011;58605;48.700;8.760;2022-08-01T08:47:26;3.85;;;3.55;;
70946;SDS011;58605;48.700;8.760;2022-08-01T08:49:58;10.27;;;4.25;;
70946;SDS011;58605;48.700;8.760;2022-08-01T08:52:25;4.30;;;3.92;;
70946;SDS011;58605;48.700;8.760;2022-08-01T08:54:51;4.45;;;4.05;;
70946;SDS011;58605;48.700;8.760;2022-08-01T08:57:19;3.67;;;3.38;;
70946;SDS011;58605;48.700;8.760;2022-08-01T08:59:45;4.25;;;3.85;;
70946;SDS011;58605;48.700;8.760;2022-08-01T09:02:12;5.28;;;3.60;;
70946;SDS011;58605;48.700;8.760;2022-08-01T09:04:39;4.55;;;3.90;;
70946;SDS011;58605;48.700;8.760;2022-08-01T09:07:07;3.65;;;3.35;;
70946;SDS011;58605;48.700;8.760;2022-08-01T09:09:33;3.60;;;3.30;;
70946;SDS011;58605;48.700;8.760;2022-08-01T09:12:00;3.60;;;3.25;;
70946;SDS011;58605;48.700;8.760;2022-08-01T09:14:26;4.18;;;3.47;;
70946;SDS011;58605;48.700;8.760;2022-08-01T09:16:58;4.20;;;3.90;;
70946;SDS011;58605;48.700;8.760;2022-08-01T09:19:26;3.60;;;3.30;;
70946;SDS011;58605;48.700;8.760;2022-08-01T09:22:01;3.85;;;3.55;;
70946;SDS011;58605;48.700;8.760;2022-08-01T09:24:30;3.78;;;3.35;;
70946;SDS011;58605;48.700;8.760;2022-08-01T09:26:58;4.40;;;3.75;;
70946;SDS011;58605;48.700;8.760;2022-08-01T09:29:25;4.18;;;3.78;;
70946;SDS011;58605;48.700;8.760;2022-08-01T09:31:52;4.15;;;3.75;;
70946;SDS011;58605;48.700;8.760;2022-08-01T09:34:23;5.80;;;3.78;;
70946;SDS011;58605;48.700;8.760;2022-08-01T09:36:51;4.40;;;4.00;;
70946;SDS011;58605;48.700;8.760;2022-08-01T09:39:20;4.18;;;3.85;;
70946;SDS011;58605;48.700;8.760;2022-08-01T09:41:48;4.40;;;3.83;;
70946;SDS011;58605;48.700;8.760;2022-08-01T09:44:14;3.92;;;3.42;;
70946;SDS011;58605;48.700;8.760;2022-08-01T09:46:49;3.55;;;3.25;;
70946;SDS011;58605;48.700;8.760;2022-08-01T09:49:26;3.92;;;3.50;;
70946;SDS011;58605;48.700;8.760;2022-08-01T09:51:53;4.90;;;3.90;;
70946;SDS011;58605;48.700;8.760;2022-08-01T09:54:27;4.32;;;3.97;;
70946;SDS011;58605;48.700;8.760;2022-08-01T09:56:57;5.10;;;3.75;;
70946;SDS011;58605;48.700;8.760;2022-08-01T09:59:37;4.72;;;3.42;;
70946;SDS011;58605;48.700;8.760;2022-08-01T10:02:06;3.60;;;3.30;;
70946;SDS011;58605;48.700;8.760;2022-08-01T10:04:33;3.53;;;3.22;;
70946;SDS011;58605;48.700;8.760;2022-08-01T10:07:03;3.80;;;3.50;;
70946;SDS011;58605;48.700;8.760;2022-08-01T10:09:32;4.20;;;3.80;;
70946;SDS011;58605;48.700;8.760;2022-08-01T10:12:00;3.88;;;3.53;;
70946;SDS011;58605;48.700;8.760;2022-08-01T10:14:28;3.90;;;3.60;;
70946;SDS011;58605;48.700;8.760;2022-08-01T10:16:55;3.92;;;3.63;;
70946;SDS011;58605;48.700;8.760;2022-08-01T10:19:23;4.30;;;3.90;;
70946;SDS011;58605;48.700;8.760;2022-08-01T10:21:50;3.85;;;3.53;;
70946;SDS011;58605;48.700;8.760;2022-08-01T10:24:19;4.03;;;3.72;;
70946;SDS011;58605;48.700;8.760;2022-08-01T10:26:45;3.95;;;3.50;;
70946;SDS011;58605;48.700;8.760;2022-08-01T10:29:14;3.50;;;3.28;;
70946;SDS011;58605;48.700;8.760;2022-08-01T10:31:45;3.70;;;3.40;;
70946;SDS011;58605;48.700;8.760;2022-08-01T10:34:12;4.10;;;3.70;;
70946;SDS011;58605;48.700;8.760;2022-08-01T10:36:45;4.15;;;3.75;;
70946;SDS011;58605;48.700;8.760;2022-08-01T10:39:11;5.20;;;3.55;;
70946;SDS011;58605;48.700;8.760;2022-08-01T10:41:38;3.50;;;3.20;;
70946;SDS011;58605;48.700;8.760;2022-08-01T10:44:04;5.72;;;3.40;;
70946;SDS011;58605;48.700;8.760;2022-08-01T10:46:34;3.90;;;3.50;;
70946;SDS011;58605;48.700;8.760;2022-08-01T10:49:03;4.35;;;3.08;;
70946;SDS011;58605;48.700;8.760;2022-08-01T10:51:33;4.47;;;2.95;;
70946;SDS011;58605;48.700;8.760;2022-08-01T10:54:02;2.97;;;2.78;;
70946;SDS011;58605;48.700;8.760;2022-08-01T10:56:38;4.15;;;3.22;;
70946;SDS011;58605;48.700;8.760;2022-08-01T10:59:05;3.53;;;3.28;;
70946;SDS011;58605;48.700;8.760;2022-08-01T11:01:32;3.65;;;3.35;;
70946;SDS011;58605;48.700;8.760;2022-08-01T11:04:07;4.43;;;3.53;;
70946;SDS011;58605;48.700;8.760;2022-08-01T11:06:42;3.75;;;3.42;;
70946;SDS011;58605;48.700;8.760;2022-08-01T11:09:22;3.33;;;3.10;;
70946;SDS011;58605;48.700;8.760;2022-08-01T11:11:58;3.88;;;3.40;;
70946;SDS011;58605;48.700;8.760;2022-08-01T11:14:27;3.38;;;3.08;;
70946;SDS011;58605;48.700;8.760;2022-08-01T11:16:56;3.47;;;3.17;;
70946;SDS011;58605;48.700;8.760;2022-08-01T11:28:31;3.53;;;3.22;;
70946;SDS011;58605;48.700;8.760;2022-08-01T11:33:52;3.75;;;2.88;;
70946;SDS011;58605;48.700;8.760;2022-08-01T11:36:19;3.10;;;2.90;;
70946;SDS011;58605;48.700;8.760;2022-08-01T11:38:46;4.07;;;2.95;;
70946;SDS011;58605;48.700;8.760;2022-08-01T11:41:14;3.08;;;2.78;;
70946;SDS011;58605;48.700;8.760;2022-08-01T11:43:54;3.40;;;3.10;;
70946;SDS011;58605;48.700;8.760;2022-08-01T11:49:24;3.55;;;3.28;;
70946;SDS011;58605;48.700;8.760;2022-08-01T11:52:01;5.28;;;3.50;;
70946;SDS011;58605;48.700;8.760;2022-08-01T11:54:30;3.83;;;3.45;;
70946;SDS011;58605;48.700;8.760;2022-08-01T11:56:57;4.05;;;3.13;;
70946;SDS011;58605;48.700;8.760;2022-08-01T11:59:25;4.20;;;3.13;;
70946;SDS011;58605;48.700;8.760;2022-08-01T12:01:52;4.05;;;3.35;;
70946;SDS011;58605;48.700;8.760;2022-08-01T12:04:18;3.40;;;3.10;;
70946;SDS011;58605;48.700;8.760;2022-08-01T12:06:45;3.42;;;2.92;;
70946;SDS011;58605;48.700;8.760;2022-08-01T12:09:18;3.83;;;3.33;;
70946;SDS011;58605;48.700;8.760;2022-08-01T12:11:46;3.58;;;3.25;;
70946;SDS011;58605;48.700;8.760;2022-08-01T12:14:16;3.30;;;3.10;;
70946;SDS011;58605;48.700;8.760;2022-08-01T12:16:51;3.88;;;3.40;;
70946;SDS011;58605;48.700;8.760;2022-08-01T12:19:19;3.30;;;3.00;;
70946;SDS011;58605;48.700;8.760;2022-08-01T12:24:32;3.55;;;3.25;;
70946;SDS011;58605;48.700;8.760;2022-08-01T12:26:58;3.55;;;3.05;;
70946;SDS011;58605;48.700;8.760;2022-08-01T12:29:31;3.88;;;3.47;;
70946;SDS011;58605;48.700;8.760;2022-08-01T12:32:01;3.25;;;2.95;;
70946;SDS011;58605;48.700;8.760;2022-08-01T12:34:28;3.50;;;3.20;;
70946;SDS011;58605;48.700;8.760;2022-08-01T12:36:54;3.20;;;2.97;;
70946;SDS011;58605;48.700;8.760;2022-08-01T12:39:22;3.33;;;3.03;;
70946;SDS011;58605;48.700;8.760;2022-08-01T12:41:55;3.92;;;2.90;;
70946;SDS011;58605;48.700;8.760;2022-08-01T12:44:21;3.58;;;3.28;;
70946;SDS011;58605;48.700;8.760;2022-08-01T12:46:47;3.95;;;3.33;;
70946;SDS011;58605;48.700;8.760;2022-08-01T12:49:13;3.45;;;3.05;;
70946;SDS011;58605;48.700;8.760;2022-08-01T12:51:40;3.13;;;2.92;;
70946;SDS011;58605;48.700;8.760;2022-08-01T12:54:06;3.50;;;3.20;;
70946;SDS011;58605;48.700;8.760;2022-08-01T12:56:36;3.45;;;3.13;;
70946;SDS011;58605;48.700;8.760;2022-08-01T13:01:49;3.97;;;3.25;;
70946;SDS011;58605;48.700;8.760;2022-08-01T13:04:15;5.00;;;3.72;;
70946;SDS011;58605;48.700;8.760;2022-08-01T13:06:41;6.38;;;2.97;;
70946;SDS011;58605;48.700;8.760;2022-08-01T13:09:08;3.50;;;3.20;;
70946;SDS011;58605;48.700;8.760;2022-08-01T13:11:38;5.55;;;3.30;;
70946;SDS011;58605;48.700;8.760;2022-08-01T13:14:04;3.10;;;2.90;;
70946;SDS011;58605;48.700;8.760;2022-08-01T13:16:30;3.50;;;3.20;;
70946;SDS011;58605;48.700;8.760;2022-08-01T13:18:56;3.53;;;3.30;;
70946;SDS011;58605;48.700;8.760;2022-08-01T13:21:24;8.60;;;3.95;;
70946;SDS011;58605;48.700;8.760;2022-08-01T13:24:01;3.25;;;3.05;;
70946;SDS011;58605;48.700;8.760;2022-08-01T13:26:42;6.70;;;3.65;;
70946;SDS011;58605;48.700;8.760;2022-08-01T13:29:10;10.00;;;4.30;;
70946;SDS011;58605;48.700;8.760;2022-08-01T13:31:38;5.75;;;3.63;;
70946;SDS011;58605;48.700;8.760;2022-08-01T13:34:07;3.90;;;3.60;;
70946;SDS011;58605;48.700;8.760;2022-08-01T13:36:34;4.15;;;3.78;;
70946;SDS011;58605;48.700;8.760;2022-08-01T13:39:00;3.72;;;3.40;;
70946;SDS011;58605;48.700;8.760;2022-08-01T13:41:47;6.60;;;3.20;;
70946;SDS011;58605;48.700;8.760;2022-08-01T13:44:13;5.50;;;3.50;;
70946;SDS011;58605;48.700;8.760;2022-08-01T13:46:40;8.63;;;3.72;;
70946;SDS011;58605;48.700;8.760;2022-08-01T13:49:09;4.07;;;3.67;;
70946;SDS011;58605;48.700;8.760;2022-08-01T13:51:36;6.93;;;4.07;;
70946;SDS011;58605;48.700;8.760;2022-08-01T13:54:04;5.82;;;3.13;;
70946;SDS011;58605;48.700;8.760;2022-08-01T13:56:30;4.68;;;3.85;;
70946;SDS011;58605;48.700;8.760;2022-08-01T13:58:58;5.05;;;3.40;;
70946;SDS011;58605;48.700;8.760;2022-08-01T14:01:24;4.50;;;3.45;;
70946;SDS011;58605;48.700;8.760;2022-08-01T14:03:51;4.88;;;3.42;;
70946;SDS011;58605;48.700;8.760;2022-08-01T14:06:17;3.75;;;3.38;;
70946;SDS011;58605;48.700;8.760;2022-08-01T14:08:45;3.30;;;3.00;;
70946;SDS011;58605;48.700;8.760;2022-08-01T14:11:11;3.45;;;3.15;;
70946;SDS011;58605;48.700;8.760;2022-08-01T14:13:38;3.78;;;3.47;;
70946;SDS011;58605;48.700;8.760;2022-08-01T14:16:07;3.88;;;3.50;;
70946;SDS011;58605;48.700;8.760;2022-08-01T14:18:39;3.70;;;3.40;;
70946;SDS011;58605;48.700;8.760;2022-08-01T14:21:05;3.38;;;3.08;;
70946;SDS011;58605;48.700;8.760;2022-08-01T14:23:31;5.63;;;3.65;;
70946;SDS011;58605;48.700;8.760;2022-08-01T14:25:57;4.40;;;3.65;;
70946;SDS011;58605;48.700;8.760;2022-08-01T14:28:23;3.80;;;3.50;;
70946;SDS011;58605;48.700;8.760;2022-08-01T14:30:50;3.08;;;2.78;;
70946;SDS011;58605;48.700;8.760;2022-08-01T14:33:18;3.97;;;3.58;;
70946;SDS011;58605;48.700;8.760;2022-08-01T14:35:44;3.67;;;3.38;;
70946;SDS011;58605;48.700;8.760;2022-08-01T14:38:10;4.32;;;3.03;;
70946;SDS011;58605;48.700;8.760;2022-08-01T14:40:36;4.10;;;3.45;;
70946;SDS011;58605;48.700;8.760;2022-08-01T14:43:08;3.58;;;2.95;;
70946;SDS011;58605;48.700;8.760;2022-08-01T14:45:34;3.08;;;2.80;;
70946;SDS011;58605;48.700;8.760;2022-08-01T14:48:00;3.63;;;3.33;;
70946;SDS011;58605;48.700;8.760;2022-08-01T14:50:27;4.22;;;3.25;;
70946;SDS011;58605;48.700;8.760;2022-08-01T14:52:54;3.63;;;3.33;;
70946;SDS011;58605;48.700;8.760;2022-08-01T14:55:20;3.70;;;3.40;;
70946;SDS011;58605;48.700;8.760;2022-08-01T14:57:50;3.67;;;3.30;;
70946;SDS011;58605;48.700;8.760;2022-08-01T15:00:16;4.15;;;3.22;;
70946;SDS011;58605;48.700;8.760;2022-08-01T15:02:42;4.70;;;3.53;;
70946;SDS011;58605;48.700;8.760;2022-08-01T15:05:09;3.90;;;3.53;;
70946;SDS011;58605;48.700;8.760;2022-08-01T15:07:36;5.28;;;3.25;;
70946;SDS011;58605;48.700;8.760;2022-08-01T15:10:03;3.38;;;3.08;;
70946;SDS011;58605;48.700;8.760;2022-08-01T15:12:30;3.47;;;2.92;;
70946;SDS011;58605;48.700;8.760;2022-08-01T15:14:56;4.68;;;2.97;;
70946;SDS011;58605;48.700;8.760;2022-08-01T15:17:23;3.30;;;3.00;;